createdAt,value
2019-06-26T00:02:07.058Z,16.73
2019-06-26T00:04:35.788Z,15.48
2019-06-26T00:07:04.617Z,16.00
2019-06-26T00:09:33.325Z,14.63
2019-06-26T00:12:02.104Z,18.27
2019-06-26T00:14:30.823Z,25.08
2019-06-26T00:16:59.581Z,14.97
2019-06-26T00:19:28.235Z,18.07
2019-06-26T00:21:56.980Z,17.23
2019-06-26T00:24:25.691Z,15.07
2019-06-26T00:26:54.384Z,15.70
2019-06-26T00:29:23.073Z,14.93
2019-06-26T00:31:51.781Z,17.20
2019-06-26T00:34:20.491Z,18.20
2019-06-26T00:36:49.257Z,16.20
2019-06-26T00:39:18.035Z,17.93
2019-06-26T00:41:46.779Z,15.77
2019-06-26T00:44:15.519Z,18.02
2019-06-26T00:46:44.341Z,15.63
2019-06-26T00:49:13.137Z,14.37
2019-06-26T00:51:41.877Z,17.17
2019-06-26T00:54:10.687Z,18.97
2019-06-26T00:56:39.351Z,14.47
2019-06-26T00:59:08.017Z,14.63
2019-06-26T01:01:36.799Z,14.50
2019-06-26T01:04:07.192Z,13.27
2019-06-26T01:06:44.974Z,15.97
2019-06-26T01:09:14.855Z,14.60
2019-06-26T01:11:45.750Z,15.40
2019-06-26T01:14:14.542Z,17.20
2019-06-26T01:16:43.247Z,16.97
2019-06-26T01:19:12.041Z,17.17
2019-06-26T01:21:40.731Z,14.57
2019-06-26T01:24:09.497Z,18.33
2019-06-26T01:26:38.137Z,18.13
2019-06-26T01:29:06.845Z,14.83
2019-06-26T01:31:35.678Z,18.33
2019-06-26T01:34:04.469Z,18.53
2019-06-26T01:36:33.195Z,16.80
2019-06-26T01:39:02.046Z,17.00
2019-06-26T01:41:30.815Z,17.23
2019-06-26T01:44:13.586Z,16.20
2019-06-26T01:46:29.914Z,18.90
2019-06-26T01:48:58.699Z,20.60
2019-06-26T01:51:27.572Z,16.97
2019-06-26T01:53:56.285Z,21.20
2019-06-26T01:56:25.004Z,20.90
2019-06-26T01:58:53.725Z,18.17
2019-06-26T02:01:22.457Z,17.20
2019-06-26T02:03:51.145Z,18.87
2019-06-26T02:06:19.927Z,22.77
2019-06-26T02:09:08.089Z,18.97
2019-06-26T02:11:36.889Z,27.07
2019-06-26T02:14:05.771Z,18.93
2019-06-26T02:16:34.546Z,19.30
2019-06-26T02:19:05.043Z,19.03
2019-06-26T02:21:33.705Z,20.77
2019-06-26T02:24:02.679Z,22.70
2019-06-26T02:26:31.379Z,20.80
2019-06-26T02:29:00.123Z,16.37
2019-06-26T02:31:28.806Z,17.77
2019-06-26T02:33:57.517Z,18.67
2019-06-26T02:36:26.345Z,23.93
2019-06-26T02:38:55.120Z,19.87
2019-06-26T02:41:23.991Z,17.13
2019-06-26T02:43:52.738Z,19.37
2019-06-26T02:46:21.523Z,25.70
2019-06-26T02:48:50.309Z,20.97
2019-06-26T02:51:19.045Z,23.17
2019-06-26T02:53:47.702Z,21.43
2019-06-26T02:56:16.633Z,20.97
2019-06-26T02:58:45.320Z,20.30
2019-06-26T03:01:14.058Z,18.90
2019-06-26T03:03:42.853Z,21.93
2019-06-26T03:06:11.608Z,22.00
2019-06-26T03:08:40.345Z,23.30
2019-06-26T03:11:09.162Z,21.13
2019-06-26T03:13:37.830Z,19.77
2019-06-26T03:16:06.469Z,19.67
2019-06-26T03:18:35.927Z,24.07
2019-06-26T03:21:04.609Z,21.23
2019-06-26T03:23:33.288Z,31.13
2019-06-26T03:26:02.085Z,25.13
2019-06-26T03:28:30.797Z,26.90
2019-06-26T03:30:59.620Z,23.23
2019-06-26T03:33:28.485Z,27.30
2019-06-26T03:35:57.205Z,20.23
2019-06-26T03:38:25.857Z,26.93
2019-06-26T03:40:54.592Z,33.67
2019-06-26T03:43:23.421Z,29.50
2019-06-26T03:45:52.139Z,25.30
2019-06-26T03:48:21.278Z,27.43
2019-06-26T03:50:49.943Z,27.93
2019-06-26T03:53:18.587Z,30.33
2019-06-26T03:55:47.310Z,30.10
2019-06-26T03:58:15.989Z,27.37
2019-06-26T04:00:44.960Z,27.53
2019-06-26T04:03:13.663Z,28.13
2019-06-26T04:05:42.334Z,26.13
2019-06-26T04:08:11.081Z,29.67
2019-06-26T04:10:43.070Z,28.00
2019-06-26T04:13:10.193Z,36.00
2019-06-26T04:15:42.509Z,30.23
2019-06-26T04:18:09.867Z,27.13
2019-06-26T04:20:38.591Z,27.33
2019-06-26T04:23:07.261Z,23.73
2019-06-26T04:25:38.055Z,24.87
2019-06-26T04:28:06.573Z,27.97
2019-06-26T04:30:35.412Z,20.80
2019-06-26T04:33:04.345Z,23.97
2019-06-26T04:35:33.060Z,24.07
2019-06-26T04:38:01.729Z,23.20
2019-06-26T04:40:30.446Z,25.53
2019-06-26T04:42:59.121Z,27.93
2019-06-26T04:45:27.901Z,29.70
2019-06-26T04:47:56.619Z,25.13
2019-06-26T04:50:25.428Z,25.90
2019-06-26T04:52:54.166Z,22.35
2019-06-26T04:55:22.928Z,24.15
2019-06-26T04:57:51.631Z,21.82
2019-06-26T05:00:21.874Z,20.43
2019-06-26T05:02:50.852Z,20.52
2019-06-26T05:05:19.844Z,23.52
2019-06-26T05:07:48.601Z,20.95
2019-06-26T05:10:17.549Z,19.50
2019-06-26T05:12:46.347Z,24.67
2019-06-26T05:15:16.365Z,17.57
2019-06-26T05:17:45.084Z,18.82
2019-06-26T05:20:15.795Z,21.40
2019-06-26T05:22:44.533Z,22.58
2019-06-26T05:25:13.411Z,22.15
2019-06-26T05:27:42.089Z,26.77
2019-06-26T05:30:12.316Z,27.35
2019-06-26T05:32:41.037Z,19.98
2019-06-26T05:35:10.228Z,20.30
2019-06-26T05:37:38.985Z,19.30
2019-06-26T05:40:12.191Z,15.83
2019-06-26T05:42:41.008Z,15.28
2019-06-26T05:45:10.911Z,16.12
2019-06-26T05:47:39.612Z,20.88
2019-06-26T05:50:09.338Z,20.77
2019-06-26T05:52:41.295Z,17.60
2019-06-26T05:55:08.897Z,21.97
2019-06-26T05:57:40.853Z,14.63
2019-06-26T06:00:09.978Z,20.05
2019-06-26T06:02:38.810Z,18.48
2019-06-26T06:05:10.960Z,18.60
2019-06-26T06:07:39.690Z,18.37
2019-06-26T06:10:09.444Z,16.35
2019-06-26T06:12:38.186Z,15.13
2019-06-26T06:15:09.978Z,15.10
2019-06-26T06:17:38.772Z,21.33
2019-06-26T06:20:08.165Z,14.90
2019-06-26T06:22:37.104Z,15.88
2019-06-26T06:25:06.954Z,18.32
2019-06-26T06:27:35.835Z,13.83
2019-06-26T06:30:06.247Z,15.38
2019-06-26T06:32:35.069Z,22.50
2019-06-26T06:35:04.217Z,15.28
2019-06-26T06:37:32.954Z,19.37
2019-06-26T06:40:01.650Z,22.07
2019-06-26T06:42:30.344Z,14.83
2019-06-26T06:44:59.146Z,16.50
2019-06-26T06:47:27.861Z,18.52
2019-06-26T06:49:56.565Z,14.80
2019-06-26T06:52:25.202Z,26.73
2019-06-26T06:54:54.009Z,16.85
2019-06-26T06:57:22.964Z,16.95
2019-06-26T06:59:51.617Z,16.10
2019-06-26T07:02:20.507Z,14.23
2019-06-26T07:04:49.199Z,14.18
2019-06-26T07:07:17.854Z,13.90
2019-06-26T07:09:46.746Z,12.30
2019-06-26T07:12:15.512Z,16.70
2019-06-26T07:14:44.259Z,13.58
2019-06-26T07:17:20.723Z,13.48
2019-06-26T07:19:43.461Z,16.97
2019-06-26T07:22:12.525Z,15.63
2019-06-26T07:24:41.216Z,12.05
2019-06-26T07:27:10.050Z,16.05
2019-06-26T07:29:38.903Z,12.80
2019-06-26T07:32:07.679Z,11.28
2019-06-26T07:34:36.499Z,13.03
2019-06-26T07:37:05.280Z,12.10
2019-06-26T07:39:34.048Z,11.10
2019-06-26T07:42:02.782Z,16.70
2019-06-26T07:44:31.463Z,12.82
2019-06-26T07:47:00.518Z,10.75
2019-06-26T07:49:29.503Z,13.10
2019-06-26T07:51:58.134Z,11.43
2019-06-26T07:54:26.861Z,14.18
2019-06-26T07:56:55.531Z,11.95
2019-06-26T07:59:24.227Z,13.45
2019-06-26T08:01:52.923Z,12.07
2019-06-26T08:04:21.617Z,12.95
2019-06-26T08:06:50.454Z,17.85
2019-06-26T08:09:19.316Z,12.43
2019-06-26T08:11:48.002Z,12.05
2019-06-26T08:14:16.824Z,12.03
2019-06-26T08:16:45.661Z,16.70
2019-06-26T08:19:14.457Z,11.85
2019-06-26T08:21:46.510Z,10.40
2019-06-26T08:24:13.559Z,11.03
2019-06-26T08:26:42.262Z,12.82
2019-06-26T08:29:11.066Z,10.85
2019-06-26T08:31:39.787Z,10.68
2019-06-26T08:34:08.497Z,11.20
2019-06-26T08:36:37.235Z,15.03
2019-06-26T08:39:07.278Z,14.15
2019-06-26T08:41:36.067Z,10.72
2019-06-26T08:44:04.861Z,12.53
2019-06-26T08:46:33.719Z,9.73
2019-06-26T08:49:02.548Z,11.20
2019-06-26T08:51:31.355Z,10.25
2019-06-26T08:54:00.216Z,19.17
2019-06-26T08:56:29.094Z,10.58
2019-06-26T08:58:57.827Z,10.40
2019-06-26T09:01:26.729Z,11.38
2019-06-26T09:03:55.597Z,9.83
2019-06-26T09:06:24.571Z,10.35
2019-06-26T09:08:53.533Z,11.63
2019-06-26T09:11:22.332Z,12.95
2019-06-26T09:13:51.018Z,12.10
2019-06-26T09:16:19.879Z,10.68
2019-06-26T09:18:48.720Z,11.53
2019-06-26T09:21:17.650Z,9.90
2019-06-26T09:23:46.539Z,15.68
2019-06-26T09:26:15.454Z,18.67
2019-06-26T09:28:44.304Z,11.22
2019-06-26T09:31:13.143Z,11.68
2019-06-26T09:33:42.010Z,12.37
2019-06-26T09:36:10.858Z,10.68
2019-06-26T09:38:39.823Z,12.23
2019-06-26T09:41:08.850Z,9.23
2019-06-26T09:43:37.765Z,11.55
2019-06-26T09:46:06.792Z,9.63
2019-06-26T09:48:51.437Z,10.63
2019-06-26T09:51:06.226Z,9.43
2019-06-26T09:53:46.729Z,9.35
2019-06-26T09:56:05.641Z,14.33
2019-06-26T09:58:34.548Z,10.82
2019-06-26T10:01:03.526Z,30.08
2019-06-26T10:03:32.270Z,8.40
2019-06-26T10:06:01.088Z,8.90
2019-06-26T10:08:30.076Z,9.88
2019-06-26T10:10:58.898Z,10.68
2019-06-26T10:13:27.844Z,13.80
2019-06-26T10:16:00.327Z,11.22
2019-06-26T10:18:27.276Z,15.35
2019-06-26T10:20:56.477Z,10.70
2019-06-26T10:23:25.448Z,10.18
2019-06-26T10:25:54.424Z,9.90
2019-06-26T10:28:23.319Z,10.20
2019-06-26T10:30:52.279Z,10.65
2019-06-26T10:33:21.250Z,10.53
2019-06-26T10:35:50.136Z,9.58
2019-06-26T10:38:19.124Z,10.13
2019-06-26T10:40:48.012Z,9.98
2019-06-26T10:43:16.953Z,9.85
2019-06-26T10:45:46.014Z,9.70
2019-06-26T10:48:15.006Z,12.95
2019-06-26T10:50:51.954Z,11.97
2019-06-26T10:53:14.593Z,11.15
2019-06-26T10:55:43.500Z,9.38
2019-06-26T10:58:12.349Z,8.33
2019-06-26T11:00:41.339Z,12.07
2019-06-26T11:03:10.229Z,9.60
2019-06-26T11:05:39.013Z,8.55
2019-06-26T11:08:07.837Z,8.80
2019-06-26T11:10:36.731Z,9.50
2019-06-26T11:13:05.745Z,10.58
2019-06-26T11:15:35.245Z,10.03
2019-06-26T11:18:04.052Z,13.50
2019-06-26T11:20:33.031Z,9.53
2019-06-26T11:23:01.889Z,11.63
2019-06-26T11:25:30.703Z,10.43
2019-06-26T11:27:59.633Z,31.00
2019-06-26T11:30:28.697Z,8.50
2019-06-26T11:32:57.549Z,7.55
2019-06-26T11:35:26.382Z,7.58
2019-06-26T11:37:55.337Z,9.55
2019-06-26T11:40:24.202Z,8.15
2019-06-26T11:42:53.140Z,8.60
2019-06-26T11:45:22.325Z,7.60
2019-06-26T11:47:51.183Z,7.05
2019-06-26T11:50:20.793Z,7.75
2019-06-26T11:52:49.701Z,9.38
2019-06-26T11:55:20.163Z,8.30
2019-06-26T11:57:49.071Z,17.87
2019-06-26T12:00:20.685Z,8.18
2019-06-26T12:02:49.527Z,8.25
2019-06-26T12:05:19.068Z,7.72
2019-06-26T12:07:47.938Z,7.90
2019-06-26T12:10:17.057Z,9.55
2019-06-26T12:12:45.887Z,8.18
2019-06-26T12:15:16.448Z,10.58
2019-06-26T12:17:45.204Z,7.28
2019-06-26T12:20:19.107Z,12.18
2019-06-26T12:22:45.076Z,7.28
2019-06-26T12:25:14.401Z,7.80
2019-06-26T12:27:43.290Z,26.65
2019-06-26T12:30:12.244Z,9.75
2019-06-26T12:32:42.584Z,7.58
2019-06-26T12:35:12.357Z,7.97
2019-06-26T12:37:41.307Z,9.23
2019-06-26T12:40:10.262Z,7.72
2019-06-26T12:42:39.137Z,9.58
2019-06-26T12:45:11.295Z,8.25
2019-06-26T12:47:40.055Z,9.93
2019-06-26T12:50:10.885Z,10.70
2019-06-26T12:52:39.726Z,10.40
2019-06-26T12:55:08.542Z,10.28
2019-06-26T12:57:37.320Z,8.30
2019-06-26T13:00:08.453Z,10.25
2019-06-26T13:02:37.241Z,8.60
2019-06-26T13:05:07.010Z,10.18
2019-06-26T13:07:35.851Z,8.85
2019-06-26T13:10:07.670Z,8.65
2019-06-26T13:12:37.458Z,8.08
2019-06-26T13:15:09.586Z,10.78
2019-06-26T13:17:38.358Z,11.60
2019-06-26T13:20:10.329Z,9.60
2019-06-26T13:22:39.551Z,11.05
2019-06-26T13:25:09.657Z,9.25
2019-06-26T13:27:38.602Z,9.90
2019-06-26T13:30:08.218Z,9.10
2019-06-26T13:32:37.028Z,9.68
2019-06-26T13:35:07.673Z,12.53
2019-06-26T13:37:36.476Z,11.65
2019-06-26T13:40:09.168Z,9.08
2019-06-26T13:42:38.367Z,10.58
2019-06-26T13:45:07.966Z,13.48
2019-06-26T13:47:36.792Z,9.85
2019-06-26T13:50:09.042Z,11.28
2019-06-26T13:52:37.910Z,10.28
2019-06-26T13:55:08.158Z,12.37
2019-06-26T13:57:36.967Z,10.38
2019-06-26T14:00:07.514Z,9.55
2019-06-26T14:02:36.308Z,9.68
2019-06-26T14:05:07.249Z,9.65
2019-06-26T14:07:36.273Z,11.20
2019-06-26T14:10:08.166Z,9.38
2019-06-26T14:12:37.134Z,11.15
2019-06-26T14:15:07.466Z,13.38
2019-06-26T14:17:36.367Z,10.48
2019-06-26T14:20:10.652Z,10.48
2019-06-26T14:22:39.557Z,11.12
2019-06-26T14:25:08.919Z,56.48
2019-06-26T14:27:37.843Z,16.27
2019-06-26T14:30:10.357Z,12.50
2019-06-26T14:32:39.254Z,17.27
2019-06-26T14:35:08.570Z,10.28
2019-06-26T14:37:37.353Z,10.30
2019-06-26T14:40:08.639Z,11.10
2019-06-26T14:42:37.719Z,14.15
2019-06-26T14:45:10.429Z,10.65
2019-06-26T14:47:39.309Z,17.37
2019-06-26T14:50:08.108Z,11.10
2019-06-26T14:52:36.968Z,16.60
2019-06-26T14:55:09.157Z,13.35
2019-06-26T14:57:38.100Z,10.78
2019-06-26T15:00:08.843Z,18.17
2019-06-26T15:02:37.715Z,10.35
2019-06-26T15:05:07.945Z,10.38
2019-06-26T15:07:36.799Z,10.43
2019-06-26T15:10:07.628Z,11.78
2019-06-26T15:12:36.461Z,13.65
2019-06-26T15:15:06.407Z,12.85
2019-06-26T15:17:35.183Z,11.80
2019-06-26T15:20:05.213Z,12.88
2019-06-26T15:22:34.159Z,12.63
2019-06-26T15:25:03.268Z,11.35
2019-06-26T15:27:32.084Z,12.50
2019-06-26T15:30:00.870Z,11.43
2019-06-26T15:32:29.677Z,11.90
2019-06-26T15:34:58.532Z,11.73
2019-06-26T15:37:27.599Z,11.63
2019-06-26T15:39:56.783Z,13.62
2019-06-26T15:42:25.458Z,11.78
2019-06-26T15:44:54.140Z,13.32
2019-06-26T15:47:22.918Z,12.07
2019-06-26T15:49:51.710Z,12.50
2019-06-26T15:52:20.585Z,12.05
2019-06-26T15:54:49.379Z,12.25
2019-06-26T15:57:18.002Z,12.05
2019-06-26T15:59:46.828Z,11.30
2019-06-26T16:02:15.547Z,11.88
2019-06-26T16:04:44.389Z,12.23
2019-06-26T16:07:13.096Z,12.43
2019-06-26T16:09:41.900Z,13.00
2019-06-26T16:12:10.657Z,15.28
2019-06-26T16:14:39.427Z,11.68
2019-06-26T16:17:09.782Z,16.50
2019-06-26T16:19:38.406Z,13.08
2019-06-26T16:22:07.229Z,12.07
2019-06-26T16:24:35.870Z,15.83
2019-06-26T16:27:04.688Z,11.22
2019-06-26T16:29:33.388Z,11.60
2019-06-26T16:32:02.127Z,12.53
2019-06-26T16:34:30.792Z,11.25
2019-06-26T16:36:59.480Z,11.28
2019-06-26T16:39:28.167Z,11.60
2019-06-26T16:41:56.834Z,13.35
2019-06-26T16:44:25.555Z,14.78
2019-06-26T16:46:54.226Z,13.78
2019-06-26T16:49:22.889Z,10.15
2019-06-26T16:51:51.719Z,11.48
2019-06-26T16:54:20.404Z,13.15
2019-06-26T16:56:49.041Z,11.03
2019-06-26T16:59:17.808Z,11.38
2019-06-26T17:01:46.445Z,11.35
2019-06-26T17:04:15.114Z,12.70
2019-06-26T17:06:43.826Z,11.55
2019-06-26T17:09:12.481Z,12.23
2019-06-26T17:11:41.139Z,13.30
2019-06-26T17:14:09.893Z,10.80
2019-06-26T17:16:38.578Z,13.43
2019-06-26T17:19:07.321Z,12.65
2019-06-26T17:21:36.031Z,15.83
2019-06-26T17:24:04.828Z,10.38
2019-06-26T17:26:33.499Z,13.00
2019-06-26T17:29:02.315Z,12.63
2019-06-26T17:31:31.150Z,12.47
2019-06-26T17:34:00.189Z,12.50
2019-06-26T17:36:29.092Z,13.08
2019-06-26T17:38:57.709Z,14.40
2019-06-26T17:41:26.516Z,12.93
2019-06-26T17:43:55.195Z,15.20
2019-06-26T17:46:23.953Z,14.13
2019-06-26T17:48:52.679Z,11.08
2019-06-26T17:51:21.535Z,11.75
2019-06-26T17:53:50.220Z,13.72
2019-06-26T17:56:18.907Z,12.73
2019-06-26T17:58:47.703Z,10.95
2019-06-26T18:01:16.445Z,12.28
2019-06-26T18:03:45.195Z,22.80
2019-06-26T18:06:13.885Z,13.40
2019-06-26T18:08:42.643Z,11.40
2019-06-26T18:11:11.352Z,11.25
2019-06-26T18:13:40.157Z,16.73
2019-06-26T18:16:08.826Z,29.60
2019-06-26T18:18:37.565Z,11.85
2019-06-26T18:21:06.281Z,11.00
2019-06-26T18:23:38.466Z,17.75
2019-06-26T18:26:13.229Z,12.10
2019-06-26T18:28:35.629Z,14.98
2019-06-26T18:31:04.418Z,15.72
2019-06-26T18:33:33.143Z,15.58
2019-06-26T18:36:01.881Z,12.33
2019-06-26T18:38:30.662Z,15.63
2019-06-26T18:40:59.360Z,14.68
2019-06-26T18:43:28.110Z,14.98
2019-06-26T18:45:56.917Z,15.18
2019-06-26T18:48:25.562Z,17.42
2019-06-26T18:50:54.275Z,17.15
2019-06-26T18:53:23.044Z,14.58
2019-06-26T18:55:51.740Z,12.33
2019-06-26T18:58:20.498Z,11.60
2019-06-26T19:00:49.133Z,15.72
2019-06-26T19:03:17.875Z,17.57
2019-06-26T19:05:46.616Z,18.65
2019-06-26T19:08:15.532Z,11.78
2019-06-26T19:10:44.278Z,11.83
2019-06-26T19:13:13.097Z,14.95
2019-06-26T19:15:41.762Z,14.85
2019-06-26T19:18:10.493Z,16.12
2019-06-26T19:20:39.276Z,21.27
2019-06-26T19:23:07.939Z,13.50
2019-06-26T19:25:36.613Z,21.87
2019-06-26T19:28:05.462Z,19.87
2019-06-26T19:30:34.173Z,14.68
2019-06-26T19:33:02.880Z,13.22
2019-06-26T19:35:31.661Z,15.28
2019-06-26T19:38:00.369Z,14.63
2019-06-26T19:40:29.154Z,13.32
2019-06-26T19:42:57.849Z,13.50
2019-06-26T19:45:26.542Z,14.70
2019-06-26T19:47:55.206Z,16.70
2019-06-26T19:50:23.920Z,19.82
2019-06-26T19:52:52.572Z,14.70
2019-06-26T19:55:21.284Z,19.57
2019-06-26T19:57:50.245Z,13.98
2019-06-26T20:00:19.065Z,14.70
2019-06-26T20:02:47.790Z,16.40
2019-06-26T20:05:16.502Z,17.60
2019-06-26T20:07:45.189Z,13.58
2019-06-26T20:10:15.777Z,19.65
2019-06-26T20:12:44.504Z,12.75
2019-06-26T20:15:13.401Z,13.65
2019-06-26T20:17:42.041Z,14.93
2019-06-26T20:20:11.030Z,13.43
2019-06-26T20:22:39.802Z,18.42
2019-06-26T20:25:09.522Z,15.65
2019-06-26T20:27:38.409Z,17.27
2019-06-26T20:30:09.848Z,14.10
2019-06-26T20:32:38.404Z,12.68
2019-06-26T20:35:07.842Z,20.20
2019-06-26T20:37:36.818Z,17.48
2019-06-26T20:40:07.617Z,17.00
2019-06-26T20:42:36.458Z,17.77
2019-06-26T20:45:06.273Z,16.87
2019-06-26T20:47:35.017Z,13.70
2019-06-26T20:50:05.166Z,18.67
2019-06-26T20:52:33.838Z,21.15
2019-06-26T20:55:02.918Z,14.85
2019-06-26T20:57:31.799Z,13.83
2019-06-26T21:00:00.616Z,18.80
2019-06-26T21:02:29.296Z,22.80
2019-06-26T21:04:58.146Z,17.82
2019-06-26T21:07:26.763Z,19.62
2019-06-26T21:09:55.506Z,14.95
2019-06-26T21:12:24.274Z,14.45
2019-06-26T21:14:52.993Z,15.53
2019-06-26T21:17:24.811Z,13.93
2019-06-26T21:19:52.139Z,21.35
2019-06-26T21:22:20.785Z,16.52
2019-06-26T21:24:49.503Z,14.60
2019-06-26T21:27:18.416Z,16.50
2019-06-26T21:29:47.428Z,15.85
2019-06-26T21:32:16.143Z,17.35
2019-06-26T21:34:44.909Z,16.30
2019-06-26T21:37:13.543Z,13.43
2019-06-26T21:39:42.220Z,16.40
2019-06-26T21:42:10.986Z,16.55
2019-06-26T21:44:39.712Z,16.10
2019-06-26T21:47:08.387Z,15.30
2019-06-26T21:49:37.098Z,15.78
2019-06-26T21:52:05.812Z,13.83
2019-06-26T21:54:34.489Z,17.40
2019-06-26T21:57:03.165Z,12.25
2019-06-26T21:59:31.844Z,19.75
2019-06-26T22:02:00.715Z,15.00
2019-06-26T22:04:29.500Z,16.07
2019-06-26T22:06:58.175Z,16.07
2019-06-26T22:09:27.003Z,14.07
2019-06-26T22:11:55.751Z,15.93
2019-06-26T22:14:24.413Z,15.63
2019-06-26T22:16:53.238Z,16.52
2019-06-26T22:19:22.109Z,13.83
2019-06-26T22:21:50.836Z,14.33
2019-06-26T22:24:19.623Z,17.73
2019-06-26T22:26:48.300Z,12.35
2019-06-26T22:29:16.962Z,21.30
2019-06-26T22:31:45.698Z,15.48
2019-06-26T22:34:14.450Z,16.85
2019-06-26T22:36:51.344Z,15.30
2019-06-26T22:39:13.510Z,15.90
2019-06-26T22:41:42.270Z,16.02
2019-06-26T22:44:11.002Z,19.82
2019-06-26T22:46:39.698Z,17.52
2019-06-26T22:49:08.506Z,22.77
2019-06-26T22:51:37.295Z,15.98
2019-06-26T22:54:06.030Z,21.75
2019-06-26T22:56:34.860Z,14.07
2019-06-26T22:59:03.543Z,19.95
2019-06-26T23:01:32.191Z,19.32
2019-06-26T23:04:00.893Z,18.80
2019-06-26T23:06:29.533Z,18.87
2019-06-26T23:08:58.205Z,22.93
2019-06-26T23:11:26.966Z,16.37
2019-06-26T23:13:55.636Z,14.75
2019-06-26T23:16:24.353Z,19.57
2019-06-26T23:18:53.238Z,17.67
2019-06-26T23:21:22.064Z,16.90
2019-06-26T23:23:50.820Z,19.95
2019-06-26T23:26:24.082Z,16.70
2019-06-26T23:28:49.899Z,16.45
2019-06-26T23:31:18.583Z,22.05
2019-06-26T23:33:47.308Z,20.45
2019-06-26T23:36:15.958Z,15.35
2019-06-26T23:38:44.620Z,16.20
2019-06-26T23:41:13.377Z,16.60
2019-06-26T23:43:42.018Z,18.07
2019-06-26T23:46:10.714Z,13.68
2019-06-26T23:48:39.377Z,25.32
2019-06-26T23:51:08.067Z,23.32
2019-06-26T23:53:36.688Z,19.98
2019-06-26T23:56:05.407Z,19.70
2019-06-26T23:58:34.047Z,16.37
